sensor_id;sensor_type;location;lat;lon;timestamp;P1;durP1;ratioP1;P2;durP2;ratioP2
20557;SDS011;10437;48.156;11.530;2022-12-07T00:00:50;14.03;;;7.73;;
20557;SDS011;10437;48.156;11.530;2022-12-07T00:03:18;13.17;;;7.20;;
20557;SDS011;10437;48.156;11.530;2022-12-07T00:05:45;12.80;;;7.47;;
20557;SDS011;10437;48.156;11.530;2022-12-07T00:08:12;11.33;;;6.80;;
20557;SDS011;10437;48.156;11.530;2022-12-07T00:10:40;12.13;;;6.67;;
20557;SDS011;10437;48.156;11.530;2022-12-07T00:13:07;14.23;;;7.30;;
20557;SDS011;10437;48.156;11.530;2022-12-07T00:15:34;10.57;;;6.60;;
20557;SDS011;10437;48.156;11.530;2022-12-07T00:18:01;13.33;;;6.87;;
20557;SDS011;10437;48.156;11.530;2022-12-07T00:20:28;15.83;;;7.40;;
20557;SDS011;10437;48.156;11.530;2022-12-07T00:22:56;12.33;;;6.90;;
20557;SDS011;10437;48.156;11.530;2022-12-07T00:25:23;13.67;;;7.07;;
20557;SDS011;10437;48.156;11.530;2022-12-07T00:27:53;14.90;;;7.07;;
20557;SDS011;10437;48.156;11.530;2022-12-07T00:30:21;15.00;;;6.87;;
20557;SDS011;10437;48.156;11.530;2022-12-07T00:32:48;14.67;;;7.07;;
20557;SDS011;10437;48.156;11.530;2022-12-07T00:35:16;11.60;;;6.90;;
20557;SDS011;10437;48.156;11.530;2022-12-07T00:37:43;10.83;;;6.43;;
20557;SDS011;10437;48.156;11.530;2022-12-07T00:40:10;14.37;;;6.30;;
20557;SDS011;10437;48.156;11.530;2022-12-07T00:42:37;11.83;;;6.50;;
20557;SDS011;10437;48.156;11.530;2022-12-07T00:45:07;12.83;;;6.50;;
20557;SDS011;10437;48.156;11.530;2022-12-07T00:47:34;13.50;;;6.60;;
20557;SDS011;10437;48.156;11.530;2022-12-07T00:50:02;12.47;;;6.43;;
20557;SDS011;10437;48.156;11.530;2022-12-07T00:52:29;12.00;;;6.33;;
20557;SDS011;10437;48.156;11.530;2022-12-07T00:54:56;12.73;;;7.10;;
20557;SDS011;10437;48.156;11.530;2022-12-07T00:57:23;15.17;;;7.10;;
20557;SDS011;10437;48.156;11.530;2022-12-07T00:59:50;11.33;;;6.77;;
20557;SDS011;10437;48.156;11.530;2022-12-07T01:02:21;13.97;;;6.67;;
20557;SDS011;10437;48.156;11.530;2022-12-07T01:04:48;12.83;;;5.93;;
20557;SDS011;10437;48.156;11.530;2022-12-07T01:07:15;13.10;;;6.83;;
20557;SDS011;10437;48.156;11.530;2022-12-07T01:09:42;12.47;;;6.40;;
20557;SDS011;10437;48.156;11.530;2022-12-07T01:12:09;12.03;;;6.40;;
20557;SDS011;10437;48.156;11.530;2022-12-07T01:14:37;11.60;;;6.40;;
20557;SDS011;10437;48.156;11.530;2022-12-07T01:17:04;11.57;;;6.40;;
20557;SDS011;10437;48.156;11.530;2022-12-07T01:19:32;13.90;;;6.80;;
20557;SDS011;10437;48.156;11.530;2022-12-07T01:21:59;9.47;;;6.20;;
20557;SDS011;10437;48.156;11.530;2022-12-07T01:24:26;13.10;;;6.27;;
20557;SDS011;10437;48.156;11.530;2022-12-07T01:26:53;11.67;;;6.13;;
20557;SDS011;10437;48.156;11.530;2022-12-07T01:29:20;13.37;;;6.97;;
20557;SDS011;10437;48.156;11.530;2022-12-07T01:31:48;11.47;;;6.47;;
20557;SDS011;10437;48.156;11.530;2022-12-07T01:34:15;12.33;;;6.70;;
20557;SDS011;10437;48.156;11.530;2022-12-07T01:36:43;10.80;;;6.13;;
20557;SDS011;10437;48.156;11.530;2022-12-07T01:39:10;11.07;;;6.50;;
20557;SDS011;10437;48.156;11.530;2022-12-07T01:41:38;11.30;;;6.00;;
20557;SDS011;10437;48.156;11.530;2022-12-07T01:44:10;12.33;;;7.13;;
20557;SDS011;10437;48.156;11.530;2022-12-07T01:46:48;11.13;;;6.00;;
20557;SDS011;10437;48.156;11.530;2022-12-07T01:49:17;11.97;;;6.57;;
20557;SDS011;10437;48.156;11.530;2022-12-07T01:51:50;12.30;;;6.00;;
20557;SDS011;10437;48.156;11.530;2022-12-07T01:54:21;10.77;;;6.27;;
20557;SDS011;10437;48.156;11.530;2022-12-07T01:56:50;11.53;;;6.30;;
20557;SDS011;10437;48.156;11.530;2022-12-07T01:59:18;10.53;;;6.10;;
20557;SDS011;10437;48.156;11.530;2022-12-07T02:01:47;11.53;;;6.30;;
20557;SDS011;10437;48.156;11.530;2022-12-07T02:04:14;10.33;;;6.10;;
20557;SDS011;10437;48.156;11.530;2022-12-07T02:06:42;12.60;;;6.70;;
20557;SDS011;10437;48.156;11.530;2022-12-07T02:09:11;10.90;;;6.17;;
20557;SDS011;10437;48.156;11.530;2022-12-07T02:11:38;9.17;;;5.80;;
20557;SDS011;10437;48.156;11.530;2022-12-07T02:14:05;9.40;;;5.73;;
20557;SDS011;10437;48.156;11.530;2022-12-07T02:16:34;11.37;;;6.20;;
20557;SDS011;10437;48.156;11.530;2022-12-07T02:19:18;12.03;;;6.17;;
20557;SDS011;10437;48.156;11.530;2022-12-07T02:22:01;11.30;;;5.93;;
20557;SDS011;10437;48.156;11.530;2022-12-07T02:24:47;11.47;;;6.03;;
20557;SDS011;10437;48.156;11.530;2022-12-07T02:27:28;12.20;;;6.13;;
20557;SDS011;10437;48.156;11.530;2022-12-07T02:30:05;14.50;;;6.30;;
20557;SDS011;10437;48.156;11.530;2022-12-07T02:32:38;11.07;;;5.83;;
20557;SDS011;10437;48.156;11.530;2022-12-07T02:35:11;10.03;;;6.03;;
20557;SDS011;10437;48.156;11.530;2022-12-07T02:37:42;12.07;;;6.07;;
20557;SDS011;10437;48.156;11.530;2022-12-07T02:40:21;10.13;;;6.03;;
20557;SDS011;10437;48.156;11.530;2022-12-07T02:42:53;10.60;;;6.00;;
20557;SDS011;10437;48.156;11.530;2022-12-07T02:45:29;10.83;;;6.23;;
20557;SDS011;10437;48.156;11.530;2022-12-07T02:47:58;12.00;;;5.87;;
20557;SDS011;10437;48.156;11.530;2022-12-07T02:50:26;12.17;;;6.53;;
20557;SDS011;10437;48.156;11.530;2022-12-07T02:52:54;11.63;;;6.17;;
20557;SDS011;10437;48.156;11.530;2022-12-07T02:55:23;11.60;;;6.37;;
20557;SDS011;10437;48.156;11.530;2022-12-07T02:57:55;11.07;;;6.23;;
20557;SDS011;10437;48.156;11.530;2022-12-07T03:00:34;12.23;;;6.93;;
20557;SDS011;10437;48.156;11.530;2022-12-07T03:03:11;10.10;;;6.10;;
20557;SDS011;10437;48.156;11.530;2022-12-07T03:05:43;11.73;;;6.27;;
20557;SDS011;10437;48.156;11.530;2022-12-07T03:08:21;10.67;;;6.10;;
20557;SDS011;10437;48.156;11.530;2022-12-07T03:10:56;12.17;;;6.47;;
20557;SDS011;10437;48.156;11.530;2022-12-07T03:13:28;13.73;;;7.27;;
20557;SDS011;10437;48.156;11.530;2022-12-07T03:16:03;11.27;;;6.53;;
20557;SDS011;10437;48.156;11.530;2022-12-07T03:18:35;11.17;;;6.30;;
20557;SDS011;10437;48.156;11.530;2022-12-07T03:21:06;12.77;;;6.67;;
20557;SDS011;10437;48.156;11.530;2022-12-07T03:23:37;11.87;;;6.60;;
20557;SDS011;10437;48.156;11.530;2022-12-07T03:26:06;12.60;;;6.63;;
20557;SDS011;10437;48.156;11.530;2022-12-07T03:28:38;14.00;;;7.13;;
20557;SDS011;10437;48.156;11.530;2022-12-07T03:31:10;12.80;;;6.33;;
20557;SDS011;10437;48.156;11.530;2022-12-07T03:33:43;12.37;;;7.13;;
20557;SDS011;10437;48.156;11.530;2022-12-07T03:36:14;11.80;;;6.60;;
20557;SDS011;10437;48.156;11.530;2022-12-07T03:38:47;11.43;;;6.70;;
20557;SDS011;10437;48.156;11.530;2022-12-07T03:41:18;13.80;;;6.67;;
20557;SDS011;10437;48.156;11.530;2022-12-07T03:43:48;14.43;;;7.33;;
20557;SDS011;10437;48.156;11.530;2022-12-07T03:46:19;12.23;;;6.77;;
20557;SDS011;10437;48.156;11.530;2022-12-07T03:48:53;12.73;;;7.07;;
20557;SDS011;10437;48.156;11.530;2022-12-07T03:51:25;12.53;;;7.10;;
20557;SDS011;10437;48.156;11.530;2022-12-07T03:53:58;14.73;;;7.37;;
20557;SDS011;10437;48.156;11.530;2022-12-07T03:56:28;12.83;;;7.40;;
20557;SDS011;10437;48.156;11.530;2022-12-07T03:58:56;14.13;;;6.80;;
20557;SDS011;10437;48.156;11.530;2022-12-07T04:01:24;14.77;;;7.23;;
20557;SDS011;10437;48.156;11.530;2022-12-07T04:03:51;14.97;;;7.60;;
20557;SDS011;10437;48.156;11.530;2022-12-07T04:06:18;13.80;;;7.33;;
20557;SDS011;10437;48.156;11.530;2022-12-07T04:08:46;12.50;;;6.47;;
20557;SDS011;10437;48.156;11.530;2022-12-07T04:11:13;12.57;;;6.40;;
20557;SDS011;10437;48.156;11.530;2022-12-07T04:13:40;12.33;;;7.17;;
20557;SDS011;10437;48.156;11.530;2022-12-07T04:16:26;13.57;;;7.70;;
20557;SDS011;10437;48.156;11.530;2022-12-07T04:18:53;13.33;;;7.27;;
20557;SDS011;10437;48.156;11.530;2022-12-07T04:21:20;11.63;;;7.03;;
20557;SDS011;10437;48.156;11.530;2022-12-07T04:23:47;13.53;;;7.23;;
20557;SDS011;10437;48.156;11.530;2022-12-07T04:26:14;12.13;;;7.03;;
20557;SDS011;10437;48.156;11.530;2022-12-07T04:28:41;10.97;;;6.80;;
20557;SDS011;10437;48.156;11.530;2022-12-07T04:31:09;11.40;;;6.70;;
20557;SDS011;10437;48.156;11.530;2022-12-07T04:33:37;13.37;;;7.27;;
20557;SDS011;10437;48.156;11.530;2022-12-07T04:36:04;14.63;;;7.67;;
20557;SDS011;10437;48.156;11.530;2022-12-07T04:38:31;12.20;;;6.93;;
20557;SDS011;10437;48.156;11.530;2022-12-07T04:41:03;12.70;;;6.80;;
20557;SDS011;10437;48.156;11.530;2022-12-07T04:43:31;14.37;;;7.67;;
20557;SDS011;10437;48.156;11.530;2022-12-07T04:45:58;14.03;;;7.00;;
20557;SDS011;10437;48.156;11.530;2022-12-07T04:48:25;15.97;;;7.90;;
20557;SDS011;10437;48.156;11.530;2022-12-07T04:50:53;14.23;;;7.13;;
20557;SDS011;10437;48.156;11.530;2022-12-07T04:53:20;18.73;;;7.07;;
20557;SDS011;10437;48.156;11.530;2022-12-07T04:55:48;13.63;;;7.10;;
20557;SDS011;10437;48.156;11.530;2022-12-07T04:58:15;12.93;;;7.17;;
20557;SDS011;10437;48.156;11.530;2022-12-07T05:00:42;14.03;;;7.80;;
20557;SDS011;10437;48.156;11.530;2022-12-07T05:03:09;12.90;;;7.03;;
20557;SDS011;10437;48.156;11.530;2022-12-07T05:05:39;12.00;;;7.20;;
20557;SDS011;10437;48.156;11.530;2022-12-07T05:08:07;12.70;;;7.07;;
20557;SDS011;10437;48.156;11.530;2022-12-07T05:10:34;13.43;;;6.87;;
20557;SDS011;10437;48.156;11.530;2022-12-07T05:13:01;13.47;;;7.43;;
20557;SDS011;10437;48.156;11.530;2022-12-07T05:15:28;12.13;;;6.77;;
20557;SDS011;10437;48.156;11.530;2022-12-07T05:17:56;15.03;;;7.73;;
20557;SDS011;10437;48.156;11.530;2022-12-07T05:20:23;13.87;;;7.60;;
20557;SDS011;10437;48.156;11.530;2022-12-07T05:22:50;20.17;;;8.73;;
20557;SDS011;10437;48.156;11.530;2022-12-07T05:25:18;12.27;;;7.20;;
20557;SDS011;10437;48.156;11.530;2022-12-07T05:27:45;13.43;;;6.87;;
20557;SDS011;10437;48.156;11.530;2022-12-07T05:30:13;12.00;;;6.77;;
20557;SDS011;10437;48.156;11.530;2022-12-07T05:32:40;13.33;;;7.53;;
20557;SDS011;10437;48.156;11.530;2022-12-07T05:35:07;13.37;;;7.27;;
20557;SDS011;10437;48.156;11.530;2022-12-07T05:37:34;12.27;;;7.00;;
20557;SDS011;10437;48.156;11.530;2022-12-07T05:40:02;14.37;;;7.77;;
20557;SDS011;10437;48.156;11.530;2022-12-07T05:42:31;13.73;;;7.87;;
20557;SDS011;10437;48.156;11.530;2022-12-07T05:44:58;14.33;;;7.57;;
20557;SDS011;10437;48.156;11.530;2022-12-07T05:47:25;14.13;;;7.67;;
20557;SDS011;10437;48.156;11.530;2022-12-07T05:49:52;13.10;;;7.10;;
20557;SDS011;10437;48.156;11.530;2022-12-07T05:52:19;14.13;;;8.17;;
20557;SDS011;10437;48.156;11.530;2022-12-07T05:54:46;12.13;;;7.47;;
20557;SDS011;10437;48.156;11.530;2022-12-07T05:57:13;14.80;;;7.87;;
20557;SDS011;10437;48.156;11.530;2022-12-07T05:59:42;14.03;;;7.70;;
20557;SDS011;10437;48.156;11.530;2022-12-07T06:02:08;16.50;;;8.57;;
20557;SDS011;10437;48.156;11.530;2022-12-07T06:04:37;14.20;;;8.13;;
20557;SDS011;10437;48.156;11.530;2022-12-07T06:07:04;13.83;;;8.07;;
20557;SDS011;10437;48.156;11.530;2022-12-07T06:09:32;15.70;;;7.50;;
20557;SDS011;10437;48.156;11.530;2022-12-07T06:11:59;16.10;;;8.40;;
20557;SDS011;10437;48.156;11.530;2022-12-07T06:14:45;14.63;;;8.00;;
20557;SDS011;10437;48.156;11.530;2022-12-07T06:17:12;14.33;;;8.13;;
20557;SDS011;10437;48.156;11.530;2022-12-07T06:19:39;13.83;;;7.70;;
20557;SDS011;10437;48.156;11.530;2022-12-07T06:22:07;15.70;;;8.10;;
20557;SDS011;10437;48.156;11.530;2022-12-07T06:24:34;15.93;;;8.30;;
20557;SDS011;10437;48.156;11.530;2022-12-07T06:27:01;13.77;;;7.70;;
20557;SDS011;10437;48.156;11.530;2022-12-07T06:29:28;14.20;;;8.17;;
20557;SDS011;10437;48.156;11.530;2022-12-07T06:31:57;15.00;;;8.13;;
20557;SDS011;10437;48.156;11.530;2022-12-07T06:34:25;15.83;;;8.60;;
20557;SDS011;10437;48.156;11.530;2022-12-07T06:36:52;20.63;;;11.07;;
20557;SDS011;10437;48.156;11.530;2022-12-07T06:39:20;14.97;;;8.07;;
20557;SDS011;10437;48.156;11.530;2022-12-07T06:41:48;13.80;;;7.37;;
20557;SDS011;10437;48.156;11.530;2022-12-07T06:44:16;13.60;;;7.87;;
20557;SDS011;10437;48.156;11.530;2022-12-07T06:46:43;17.93;;;9.30;;
20557;SDS011;10437;48.156;11.530;2022-12-07T06:49:12;17.93;;;9.20;;
20557;SDS011;10437;48.156;11.530;2022-12-07T06:51:39;15.90;;;8.63;;
20557;SDS011;10437;48.156;11.530;2022-12-07T06:54:07;14.70;;;8.07;;
20557;SDS011;10437;48.156;11.530;2022-12-07T06:56:34;13.47;;;7.43;;
20557;SDS011;10437;48.156;11.530;2022-12-07T06:59:01;15.07;;;7.83;;
20557;SDS011;10437;48.156;11.530;2022-12-07T07:01:28;14.80;;;8.13;;
20557;SDS011;10437;48.156;11.530;2022-12-07T07:03:56;14.67;;;8.00;;
20557;SDS011;10437;48.156;11.530;2022-12-07T07:06:24;15.97;;;8.10;;
20557;SDS011;10437;48.156;11.530;2022-12-07T07:08:51;16.67;;;7.73;;
20557;SDS011;10437;48.156;11.530;2022-12-07T07:11:18;14.17;;;8.13;;
20557;SDS011;10437;48.156;11.530;2022-12-07T07:13:45;13.67;;;7.77;;
20557;SDS011;10437;48.156;11.530;2022-12-07T07:16:13;15.93;;;8.27;;
20557;SDS011;10437;48.156;11.530;2022-12-07T07:18:40;14.33;;;8.03;;
20557;SDS011;10437;48.156;11.530;2022-12-07T07:21:07;14.50;;;8.37;;
20557;SDS011;10437;48.156;11.530;2022-12-07T07:23:35;15.03;;;8.17;;
20557;SDS011;10437;48.156;11.530;2022-12-07T07:26:02;15.27;;;8.50;;
20557;SDS011;10437;48.156;11.530;2022-12-07T07:28:29;14.20;;;7.87;;
20557;SDS011;10437;48.156;11.530;2022-12-07T07:30:57;18.67;;;8.83;;
20557;SDS011;10437;48.156;11.530;2022-12-07T07:33:24;19.93;;;9.13;;
20557;SDS011;10437;48.156;11.530;2022-12-07T07:35:51;16.10;;;8.63;;
20557;SDS011;10437;48.156;11.530;2022-12-07T07:38:18;15.23;;;8.67;;
20557;SDS011;10437;48.156;11.530;2022-12-07T07:40:46;16.67;;;8.50;;
20557;SDS011;10437;48.156;11.530;2022-12-07T07:43:13;16.47;;;8.93;;
20557;SDS011;10437;48.156;11.530;2022-12-07T07:45:40;16.27;;;8.87;;
20557;SDS011;10437;48.156;11.530;2022-12-07T07:48:07;18.33;;;8.83;;
20557;SDS011;10437;48.156;11.530;2022-12-07T07:50:35;16.27;;;8.87;;
20557;SDS011;10437;48.156;11.530;2022-12-07T07:53:02;15.57;;;8.27;;
20557;SDS011;10437;48.156;11.530;2022-12-07T07:55:29;17.80;;;9.23;;
20557;SDS011;10437;48.156;11.530;2022-12-07T07:57:57;17.90;;;9.43;;
20557;SDS011;10437;48.156;11.530;2022-12-07T08:00:24;17.33;;;9.60;;
20557;SDS011;10437;48.156;11.530;2022-12-07T08:02:51;17.37;;;9.10;;
20557;SDS011;10437;48.156;11.530;2022-12-07T08:05:18;18.33;;;9.30;;
20557;SDS011;10437;48.156;11.530;2022-12-07T08:07:45;19.00;;;9.67;;
20557;SDS011;10437;48.156;11.530;2022-12-07T08:10:13;18.33;;;9.50;;
20557;SDS011;10437;48.156;11.530;2022-12-07T08:12:40;18.73;;;9.90;;
20557;SDS011;10437;48.156;11.530;2022-12-07T08:15:24;16.70;;;9.37;;
20557;SDS011;10437;48.156;11.530;2022-12-07T08:17:52;19.47;;;9.10;;
20557;SDS011;10437;48.156;11.530;2022-12-07T08:20:19;18.67;;;10.03;;
20557;SDS011;10437;48.156;11.530;2022-12-07T08:22:47;21.27;;;9.43;;
20557;SDS011;10437;48.156;11.530;2022-12-07T08:25:14;21.90;;;10.33;;
20557;SDS011;10437;48.156;11.530;2022-12-07T08:27:41;20.50;;;9.63;;
20557;SDS011;10437;48.156;11.530;2022-12-07T08:30:08;20.57;;;10.87;;
20557;SDS011;10437;48.156;11.530;2022-12-07T08:32:37;17.83;;;9.20;;
20557;SDS011;10437;48.156;11.530;2022-12-07T08:35:04;20.40;;;10.60;;
20557;SDS011;10437;48.156;11.530;2022-12-07T08:37:31;17.57;;;9.77;;
20557;SDS011;10437;48.156;11.530;2022-12-07T08:39:59;17.73;;;9.47;;
20557;SDS011;10437;48.156;11.530;2022-12-07T08:42:26;22.53;;;10.03;;
20557;SDS011;10437;48.156;11.530;2022-12-07T08:44:55;20.73;;;10.47;;
20557;SDS011;10437;48.156;11.530;2022-12-07T08:47:23;22.43;;;9.93;;
20557;SDS011;10437;48.156;11.530;2022-12-07T08:49:52;20.77;;;9.63;;
20557;SDS011;10437;48.156;11.530;2022-12-07T08:52:20;19.37;;;10.13;;
20557;SDS011;10437;48.156;11.530;2022-12-07T08:54:47;19.30;;;10.00;;
20557;SDS011;10437;48.156;11.530;2022-12-07T08:57:15;19.53;;;10.23;;
20557;SDS011;10437;48.156;11.530;2022-12-07T08:59:42;19.30;;;9.87;;
20557;SDS011;10437;48.156;11.530;2022-12-07T09:02:09;19.03;;;9.60;;
20557;SDS011;10437;48.156;11.530;2022-12-07T09:04:36;16.93;;;9.23;;
20557;SDS011;10437;48.156;11.530;2022-12-07T09:07:05;18.17;;;9.80;;
20557;SDS011;10437;48.156;11.530;2022-12-07T09:09:32;17.77;;;8.53;;
20557;SDS011;10437;48.156;11.530;2022-12-07T09:11:59;16.47;;;8.73;;
20557;SDS011;10437;48.156;11.530;2022-12-07T09:14:26;17.40;;;8.70;;
20557;SDS011;10437;48.156;11.530;2022-12-07T09:16:53;16.43;;;7.97;;
20557;SDS011;10437;48.156;11.530;2022-12-07T09:19:20;18.70;;;9.03;;
20557;SDS011;10437;48.156;11.530;2022-12-07T09:21:48;18.60;;;8.67;;
20557;SDS011;10437;48.156;11.530;2022-12-07T09:24:16;15.50;;;8.20;;
20557;SDS011;10437;48.156;11.530;2022-12-07T09:26:43;16.77;;;8.70;;
20557;SDS011;10437;48.156;11.530;2022-12-07T09:29:10;17.87;;;8.47;;
20557;SDS011;10437;48.156;11.530;2022-12-07T09:31:38;15.37;;;8.23;;
20557;SDS011;10437;48.156;11.530;2022-12-07T09:34:05;15.17;;;8.47;;
20557;SDS011;10437;48.156;11.530;2022-12-07T09:36:32;16.63;;;8.83;;
20557;SDS011;10437;48.156;11.530;2022-12-07T09:38:59;14.87;;;7.97;;
20557;SDS011;10437;48.156;11.530;2022-12-07T09:41:29;14.87;;;8.07;;
20557;SDS011;10437;48.156;11.530;2022-12-07T09:43:58;14.97;;;8.17;;
20557;SDS011;10437;48.156;11.530;2022-12-07T09:46:30;15.33;;;7.83;;
20557;SDS011;10437;48.156;11.530;2022-12-07T09:49:01;19.63;;;8.40;;
20557;SDS011;10437;48.156;11.530;2022-12-07T09:51:29;16.77;;;7.73;;
20557;SDS011;10437;48.156;11.530;2022-12-07T09:53:56;14.80;;;8.27;;
20557;SDS011;10437;48.156;11.530;2022-12-07T09:56:25;14.67;;;7.67;;
20557;SDS011;10437;48.156;11.530;2022-12-07T09:58:54;17.40;;;8.67;;
20557;SDS011;10437;48.156;11.530;2022-12-07T10:01:27;16.27;;;7.80;;
20557;SDS011;10437;48.156;11.530;2022-12-07T10:03:58;14.60;;;8.40;;
20557;SDS011;10437;48.156;11.530;2022-12-07T10:06:28;13.73;;;7.70;;
20557;SDS011;10437;48.156;11.530;2022-12-07T10:08:55;15.10;;;7.70;;
20557;SDS011;10437;48.156;11.530;2022-12-07T10:11:22;14.80;;;7.47;;
20557;SDS011;10437;48.156;11.530;2022-12-07T10:13:51;16.93;;;8.03;;
20557;SDS011;10437;48.156;11.530;2022-12-07T10:19:20;16.07;;;8.07;;
20557;SDS011;10437;48.156;11.530;2022-12-07T10:22:01;14.43;;;7.67;;
20557;SDS011;10437;48.156;11.530;2022-12-07T10:24:30;16.17;;;7.73;;
20557;SDS011;10437;48.156;11.530;2022-12-07T10:26:57;14.80;;;7.30;;
20557;SDS011;10437;48.156;11.530;2022-12-07T10:29:28;13.70;;;7.17;;
20557;SDS011;10437;48.156;11.530;2022-12-07T10:31:59;15.80;;;7.43;;
20557;SDS011;10437;48.156;11.530;2022-12-07T10:34:29;14.10;;;6.90;;
20557;SDS011;10437;48.156;11.530;2022-12-07T10:37:13;14.40;;;7.53;;
20557;SDS011;10437;48.156;11.530;2022-12-07T10:39:42;15.53;;;7.90;;
20557;SDS011;10437;48.156;11.530;2022-12-07T10:42:17;14.37;;;7.83;;
20557;SDS011;10437;48.156;11.530;2022-12-07T10:44:46;14.30;;;7.80;;
20557;SDS011;10437;48.156;11.530;2022-12-07T10:47:22;14.70;;;6.70;;
20557;SDS011;10437;48.156;11.530;2022-12-07T10:53:14;11.33;;;6.63;;
20557;SDS011;10437;48.156;11.530;2022-12-07T10:56:05;11.13;;;6.13;;
20557;SDS011;10437;48.156;11.530;2022-12-07T10:58:47;9.60;;;5.60;;
20557;SDS011;10437;48.156;11.530;2022-12-07T11:01:23;11.30;;;6.00;;
20557;SDS011;10437;48.156;11.530;2022-12-07T11:04:11;9.70;;;5.53;;
20557;SDS011;10437;48.156;11.530;2022-12-07T11:06:46;10.80;;;5.90;;
20557;SDS011;10437;48.156;11.530;2022-12-07T11:12:21;13.70;;;6.07;;
20557;SDS011;10437;48.156;11.530;2022-12-07T11:14:56;10.97;;;5.90;;
20557;SDS011;10437;48.156;11.530;2022-12-07T11:17:30;10.10;;;5.63;;
20557;SDS011;10437;48.156;11.530;2022-12-07T11:20:11;9.57;;;5.27;;
20557;SDS011;10437;48.156;11.530;2022-12-07T11:22:57;10.70;;;5.03;;
20557;SDS011;10437;48.156;11.530;2022-12-07T11:25:32;8.23;;;4.70;;
20557;SDS011;10437;48.156;11.530;2022-12-07T11:28:15;10.23;;;4.37;;
20557;SDS011;10437;48.156;11.530;2022-12-07T11:30:55;8.03;;;4.53;;
20557;SDS011;10437;48.156;11.530;2022-12-07T11:33:29;10.43;;;4.57;;
20557;SDS011;10437;48.156;11.530;2022-12-07T11:36:07;8.17;;;4.70;;
20557;SDS011;10437;48.156;11.530;2022-12-07T11:38:42;9.67;;;5.13;;
20557;SDS011;10437;48.156;11.530;2022-12-07T11:41:13;9.23;;;4.90;;
20557;SDS011;10437;48.156;11.530;2022-12-07T11:43:52;12.03;;;5.20;;
20557;SDS011;10437;48.156;11.530;2022-12-07T11:46:23;12.70;;;5.60;;
20557;SDS011;10437;48.156;11.530;2022-12-07T11:48:53;12.47;;;5.30;;
20557;SDS011;10437;48.156;11.530;2022-12-07T11:51:29;10.03;;;5.63;;
20557;SDS011;10437;48.156;11.530;2022-12-07T11:54:01;9.10;;;4.50;;
20557;SDS011;10437;48.156;11.530;2022-12-07T11:56:35;6.40;;;3.80;;
20557;SDS011;10437;48.156;11.530;2022-12-07T11:59:04;6.97;;;4.10;;
20557;SDS011;10437;48.156;11.530;2022-12-07T12:01:41;7.10;;;3.83;;
20557;SDS011;10437;48.156;11.530;2022-12-07T12:04:20;7.73;;;4.03;;
20557;SDS011;10437;48.156;11.530;2022-12-07T12:06:54;9.37;;;4.33;;
20557;SDS011;10437;48.156;11.530;2022-12-07T12:09:23;10.30;;;4.57;;
20557;SDS011;10437;48.156;11.530;2022-12-07T12:12:06;6.67;;;3.90;;
20557;SDS011;10437;48.156;11.530;2022-12-07T12:14:55;7.27;;;4.17;;
20557;SDS011;10437;48.156;11.530;2022-12-07T12:17:38;8.47;;;4.40;;
20557;SDS011;10437;48.156;11.530;2022-12-07T12:20:28;7.90;;;3.97;;
20557;SDS011;10437;48.156;11.530;2022-12-07T12:22:59;10.13;;;4.63;;
20557;SDS011;10437;48.156;11.530;2022-12-07T12:25:35;7.87;;;4.07;;
20557;SDS011;10437;48.156;11.530;2022-12-07T12:28:15;9.17;;;4.77;;
20557;SDS011;10437;48.156;11.530;2022-12-07T12:30:51;10.20;;;4.23;;
20557;SDS011;10437;48.156;11.530;2022-12-07T12:33:31;9.90;;;4.60;;
20557;SDS011;10437;48.156;11.530;2022-12-07T12:39:07;10.03;;;4.77;;
20557;SDS011;10437;48.156;11.530;2022-12-07T12:41:51;11.13;;;5.23;;
20557;SDS011;10437;48.156;11.530;2022-12-07T12:44:39;11.07;;;4.80;;
20557;SDS011;10437;48.156;11.530;2022-12-07T12:50:23;12.30;;;5.33;;
20557;SDS011;10437;48.156;11.530;2022-12-07T12:52:55;9.93;;;5.50;;
20557;SDS011;10437;48.156;11.530;2022-12-07T12:58:33;13.27;;;5.87;;
20557;SDS011;10437;48.156;11.530;2022-12-07T13:10:36;11.70;;;5.03;;
20557;SDS011;10437;48.156;11.530;2022-12-07T13:25:17;12.27;;;5.40;;
20557;SDS011;10437;48.156;11.530;2022-12-07T13:27:56;11.87;;;5.87;;
20557;SDS011;10437;48.156;11.530;2022-12-07T13:30:28;13.83;;;6.07;;
20557;SDS011;10437;48.156;11.530;2022-12-07T13:32:57;17.73;;;5.87;;
20557;SDS011;10437;48.156;11.530;2022-12-07T13:35:29;14.77;;;6.73;;
20557;SDS011;10437;48.156;11.530;2022-12-07T13:37:58;12.10;;;6.00;;
20557;SDS011;10437;48.156;11.530;2022-12-07T13:40:27;11.00;;;5.70;;
20557;SDS011;10437;48.156;11.530;2022-12-07T13:42:58;13.03;;;6.20;;
20557;SDS011;10437;48.156;11.530;2022-12-07T13:45:26;13.67;;;6.50;;
20557;SDS011;10437;48.156;11.530;2022-12-07T13:48:16;12.00;;;6.30;;
20557;SDS011;10437;48.156;11.530;2022-12-07T13:50:52;10.27;;;5.27;;
20557;SDS011;10437;48.156;11.530;2022-12-07T13:53:20;10.73;;;5.57;;
20557;SDS011;10437;48.156;11.530;2022-12-07T13:55:47;12.97;;;6.10;;
20557;SDS011;10437;48.156;11.530;2022-12-07T13:58:14;11.93;;;5.33;;
20557;SDS011;10437;48.156;11.530;2022-12-07T14:00:42;11.17;;;5.70;;
20557;SDS011;10437;48.156;11.530;2022-12-07T14:03:23;14.27;;;5.83;;
20557;SDS011;10437;48.156;11.530;2022-12-07T14:09:05;13.80;;;5.60;;
20557;SDS011;10437;48.156;11.530;2022-12-07T14:11:33;11.97;;;5.73;;
20557;SDS011;10437;48.156;11.530;2022-12-07T14:14:01;11.23;;;5.43;;
20557;SDS011;10437;48.156;11.530;2022-12-07T14:16:30;10.43;;;5.30;;
20557;SDS011;10437;48.156;11.530;2022-12-07T14:18:59;9.93;;;5.00;;
20557;SDS011;10437;48.156;11.530;2022-12-07T14:21:28;10.37;;;5.37;;
20557;SDS011;10437;48.156;11.530;2022-12-07T14:24:10;7.93;;;4.33;;
20557;SDS011;10437;48.156;11.530;2022-12-07T14:26:41;6.70;;;3.80;;
20557;SDS011;10437;48.156;11.530;2022-12-07T14:31:56;7.73;;;3.33;;
20557;SDS011;10437;48.156;11.530;2022-12-07T14:34:25;9.20;;;3.90;;
20557;SDS011;10437;48.156;11.530;2022-12-07T14:36:52;7.10;;;3.60;;
20557;SDS011;10437;48.156;11.530;2022-12-07T14:39:19;7.33;;;3.97;;
20557;SDS011;10437;48.156;11.530;2022-12-07T14:41:47;7.57;;;3.90;;
20557;SDS011;10437;48.156;11.530;2022-12-07T14:44:17;7.67;;;3.70;;
20557;SDS011;10437;48.156;11.530;2022-12-07T14:46:45;8.93;;;3.93;;
20557;SDS011;10437;48.156;11.530;2022-12-07T14:49:13;9.17;;;4.13;;
20557;SDS011;10437;48.156;11.530;2022-12-07T14:51:41;10.80;;;4.00;;
20557;SDS011;10437;48.156;11.530;2022-12-07T14:54:13;8.87;;;4.50;;
20557;SDS011;10437;48.156;11.530;2022-12-07T14:56:42;10.93;;;4.23;;
20557;SDS011;10437;48.156;11.530;2022-12-07T14:59:10;8.93;;;3.93;;
20557;SDS011;10437;48.156;11.530;2022-12-07T15:01:37;8.07;;;4.10;;
20557;SDS011;10437;48.156;11.530;2022-12-07T15:04:05;7.50;;;4.30;;
20557;SDS011;10437;48.156;11.530;2022-12-07T15:06:32;8.93;;;4.03;;
20557;SDS011;10437;48.156;11.530;2022-12-07T15:09:00;9.90;;;4.53;;
20557;SDS011;10437;48.156;11.530;2022-12-07T15:11:28;7.13;;;3.87;;
20557;SDS011;10437;48.156;11.530;2022-12-07T15:13:55;10.20;;;4.53;;
20557;SDS011;10437;48.156;11.530;2022-12-07T15:16:36;11.60;;;4.23;;
20557;SDS011;10437;48.156;11.530;2022-12-07T15:19:04;8.10;;;4.23;;
20557;SDS011;10437;48.156;11.530;2022-12-07T15:21:32;10.90;;;4.50;;
20557;SDS011;10437;48.156;11.530;2022-12-07T15:23:58;10.43;;;4.30;;
20557;SDS011;10437;48.156;11.530;2022-12-07T15:26:27;12.77;;;5.20;;